sensor_id;sensor_type;location;lat;lon;timestamp;temperature;humidity
47520;DHT22;33252;48.122;11.538;2024-01-11T00:00:39;-4.80;99.90
47520;DHT22;33252;48.122;11.538;2024-01-11T00:03:05;-4.90;99.90
47520;DHT22;33252;48.122;11.538;2024-01-11T00:05:30;-4.90;99.90
47520;DHT22;33252;48.122;11.538;2024-01-11T00:07:56;-4.90;99.90
47520;DHT22;33252;48.122;11.538;2024-01-11T00:10:22;-4.90;99.90
47520;DHT22;33252;48.122;11.538;2024-01-11T00:12:48;-4.80;99.90
47520;DHT22;33252;48.122;11.538;2024-01-11T00:15:14;-4.80;99.90
47520;DHT22;33252;48.122;11.538;2024-01-11T00:17:39;-4.90;99.90
47520;DHT22;33252;48.122;11.538;2024-01-11T00:20:05;-5.00;99.90
47520;DHT22;33252;48.122;11.538;2024-01-11T00:22:31;-4.90;99.90
47520;DHT22;33252;48.122;11.538;2024-01-11T00:24:57;-4.90;99.90
47520;DHT22;33252;48.122;11.538;2024-01-11T00:27:23;-4.80;99.90
47520;DHT22;33252;48.122;11.538;2024-01-11T00:29:48;-4.70;99.90
47520;DHT22;33252;48.122;11.538;2024-01-11T00:32:14;-4.70;99.90
47520;DHT22;33252;48.122;11.538;2024-01-11T00:34:39;-4.80;99.90
47520;DHT22;33252;48.122;11.538;2024-01-11T00:37:05;-4.80;99.90
47520;DHT22;33252;48.122;11.538;2024-01-11T00:39:31;-4.70;99.90
47520;DHT22;33252;48.122;11.538;2024-01-11T00:41:56;-4.70;99.90
47520;DHT22;33252;48.122;11.538;2024-01-11T00:44:22;-4.60;99.90
47520;DHT22;33252;48.122;11.538;2024-01-11T00:46:48;-4.60;99.90
47520;DHT22;33252;48.122;11.538;2024-01-11T00:49:13;-4.60;99.90
47520;DHT22;33252;48.122;11.538;2024-01-11T00:51:39;-4.70;99.90
47520;DHT22;33252;48.122;11.538;2024-01-11T00:54:05;-4.80;99.90
47520;DHT22;33252;48.122;11.538;2024-01-11T00:56:30;-4.80;99.90
47520;DHT22;33252;48.122;11.538;2024-01-11T00:58:56;-4.90;99.90
47520;DHT22;33252;48.122;11.538;2024-01-11T01:01:21;-4.80;99.90
47520;DHT22;33252;48.122;11.538;2024-01-11T01:03:47;-4.80;99.90
47520;DHT22;33252;48.122;11.538;2024-01-11T01:06:12;-4.80;99.90
47520;DHT22;33252;48.122;11.538;2024-01-11T01:08:38;-4.80;99.90
47520;DHT22;33252;48.122;11.538;2024-01-11T01:11:03;-4.80;99.90
47520;DHT22;33252;48.122;11.538;2024-01-11T01:13:29;-4.70;99.90
47520;DHT22;33252;48.122;11.538;2024-01-11T01:15:55;-4.70;99.90
47520;DHT22;33252;48.122;11.538;2024-01-11T01:18:20;-4.70;99.90
47520;DHT22;33252;48.122;11.538;2024-01-11T01:20:46;-4.70;99.90
47520;DHT22;33252;48.122;11.538;2024-01-11T01:23:11;-4.80;99.90
47520;DHT22;33252;48.122;11.538;2024-01-11T01:25:37;-4.70;99.90
47520;DHT22;33252;48.122;11.538;2024-01-11T01:28:02;-4.80;99.90
47520;DHT22;33252;48.122;11.538;2024-01-11T01:30:28;-4.80;99.90
47520;DHT22;33252;48.122;11.538;2024-01-11T01:32:54;-4.70;99.90
47520;DHT22;33252;48.122;11.538;2024-01-11T01:35:19;-4.70;99.90
47520;DHT22;33252;48.122;11.538;2024-01-11T01:37:45;-4.70;99.90
47520;DHT22;33252;48.122;11.538;2024-01-11T01:40:12;-4.70;99.90
47520;DHT22;33252;48.122;11.538;2024-01-11T01:42:44;-4.60;99.90
47520;DHT22;33252;48.122;11.538;2024-01-11T01:45:10;-4.60;99.90
47520;DHT22;33252;48.122;11.538;2024-01-11T01:47:37;-4.70;99.90
47520;DHT22;33252;48.122;11.538;2024-01-11T01:50:04;-4.70;99.90
47520;DHT22;33252;48.122;11.538;2024-01-11T01:52:30;-4.80;99.90
47520;DHT22;33252;48.122;11.538;2024-01-11T01:54:58;-4.80;99.90
47520;DHT22;33252;48.122;11.538;2024-01-11T01:57:25;-4.70;99.90
47520;DHT22;33252;48.122;11.538;2024-01-11T01:59:51;-4.70;99.90
47520;DHT22;33252;48.122;11.538;2024-01-11T02:02:19;-4.70;99.90
47520;DHT22;33252;48.122;11.538;2024-01-11T02:04:45;-4.70;99.90
47520;DHT22;33252;48.122;11.538;2024-01-11T02:07:11;-4.70;99.90
47520;DHT22;33252;48.122;11.538;2024-01-11T02:09:37;-4.80;99.90
47520;DHT22;33252;48.122;11.538;2024-01-11T02:12:03;-4.80;99.90
47520;DHT22;33252;48.122;11.538;2024-01-11T02:14:30;-4.80;99.90
47520;DHT22;33252;48.122;11.538;2024-01-11T02:16:56;-4.80;99.90
47520;DHT22;33252;48.122;11.538;2024-01-11T02:19:22;-4.90;99.90
47520;DHT22;33252;48.122;11.538;2024-01-11T02:21:49;-5.00;99.90
47520;DHT22;33252;48.122;11.538;2024-01-11T02:24:18;-5.00;99.90
47520;DHT22;33252;48.122;11.538;2024-01-11T02:27:01;-5.00;99.90
47520;DHT22;33252;48.122;11.538;2024-01-11T02:29:27;-5.00;99.90
47520;DHT22;33252;48.122;11.538;2024-01-11T02:31:54;-5.00;99.90
47520;DHT22;33252;48.122;11.538;2024-01-11T02:34:20;-5.10;99.90
47520;DHT22;33252;48.122;11.538;2024-01-11T02:36:46;-5.10;99.90
47520;DHT22;33252;48.122;11.538;2024-01-11T02:39:13;-5.10;99.90
47520;DHT22;33252;48.122;11.538;2024-01-11T02:41:41;-5.10;99.90
47520;DHT22;33252;48.122;11.538;2024-01-11T02:44:07;-5.10;99.90
47520;DHT22;33252;48.122;11.538;2024-01-11T02:46:33;-5.10;99.90
47520;DHT22;33252;48.122;11.538;2024-01-11T02:48:58;-5.10;99.90
47520;DHT22;33252;48.122;11.538;2024-01-11T02:51:24;-5.10;99.90
47520;DHT22;33252;48.122;11.538;2024-01-11T02:53:49;-5.00;99.90
47520;DHT22;33252;48.122;11.538;2024-01-11T02:56:15;-5.00;99.90
47520;DHT22;33252;48.122;11.538;2024-01-11T02:58:40;-5.10;99.90
47520;DHT22;33252;48.122;11.538;2024-01-11T03:01:06;-5.10;99.90
47520;DHT22;33252;48.122;11.538;2024-01-11T03:03:31;-5.10;99.90
47520;DHT22;33252;48.122;11.538;2024-01-11T03:05:57;-5.10;99.90
47520;DHT22;33252;48.122;11.538;2024-01-11T03:08:22;-5.10;99.90
47520;DHT22;33252;48.122;11.538;2024-01-11T03:10:48;-5.00;99.90
47520;DHT22;33252;48.122;11.538;2024-01-11T03:13:13;-5.10;99.90
47520;DHT22;33252;48.122;11.538;2024-01-11T03:15:39;-5.10;99.90
47520;DHT22;33252;48.122;11.538;2024-01-11T03:18:05;-5.10;99.90
47520;DHT22;33252;48.122;11.538;2024-01-11T03:20:30;-5.00;99.90
47520;DHT22;33252;48.122;11.538;2024-01-11T03:22:56;-5.10;99.90
47520;DHT22;33252;48.122;11.538;2024-01-11T03:25:21;-5.00;99.90
47520;DHT22;33252;48.122;11.538;2024-01-11T03:27:47;-5.00;99.90
47520;DHT22;33252;48.122;11.538;2024-01-11T03:30:13;-5.00;99.90
47520;DHT22;33252;48.122;11.538;2024-01-11T03:32:38;-5.00;99.90
47520;DHT22;33252;48.122;11.538;2024-01-11T03:35:10;-5.00;99.90
47520;DHT22;33252;48.122;11.538;2024-01-11T03:37:35;-5.00;99.90
47520;DHT22;33252;48.122;11.538;2024-01-11T03:40:02;-5.00;99.90
47520;DHT22;33252;48.122;11.538;2024-01-11T03:42:28;-5.00;99.90
47520;DHT22;33252;48.122;11.538;2024-01-11T03:44:54;-5.00;99.90
47520;DHT22;33252;48.122;11.538;2024-01-11T03:47:19;-5.10;99.90
47520;DHT22;33252;48.122;11.538;2024-01-11T03:49:45;-5.00;99.90
47520;DHT22;33252;48.122;11.538;2024-01-11T03:52:10;-5.10;99.90
47520;DHT22;33252;48.122;11.538;2024-01-11T03:54:36;-5.10;99.90
47520;DHT22;33252;48.122;11.538;2024-01-11T03:57:02;-5.00;99.90
47520;DHT22;33252;48.122;11.538;2024-01-11T03:59:27;-5.10;99.90
47520;DHT22;33252;48.122;11.538;2024-01-11T04:01:53;-5.00;99.90
47520;DHT22;33252;48.122;11.538;2024-01-11T04:04:19;-5.00;99.90
47520;DHT22;33252;48.122;11.538;2024-01-11T04:06:45;-5.00;99.90
47520;DHT22;33252;48.122;11.538;2024-01-11T04:09:10;-5.00;99.90
47520;DHT22;33252;48.122;11.538;2024-01-11T04:11:36;-5.10;99.90
47520;DHT22;33252;48.122;11.538;2024-01-11T04:14:02;-5.10;99.90
47520;DHT22;33252;48.122;11.538;2024-01-11T04:16:27;-5.20;99.90
47520;DHT22;33252;48.122;11.538;2024-01-11T04:18:53;-5.10;99.90
47520;DHT22;33252;48.122;11.538;2024-01-11T04:21:26;-5.10;99.90
47520;DHT22;33252;48.122;11.538;2024-01-11T04:23:54;-5.10;99.90
47520;DHT22;33252;48.122;11.538;2024-01-11T04:26:20;-5.10;99.90
47520;DHT22;33252;48.122;11.538;2024-01-11T04:28:46;-5.20;99.90
47520;DHT22;33252;48.122;11.538;2024-01-11T04:31:13;-5.20;99.90
47520;DHT22;33252;48.122;11.538;2024-01-11T04:33:46;-5.20;99.90
47520;DHT22;33252;48.122;11.538;2024-01-11T04:36:12;-5.20;99.90
47520;DHT22;33252;48.122;11.538;2024-01-11T04:38:38;-5.20;99.90
47520;DHT22;33252;48.122;11.538;2024-01-11T04:41:11;-5.20;99.90
47520;DHT22;33252;48.122;11.538;2024-01-11T04:43:42;-5.20;99.90
47520;DHT22;33252;48.122;11.538;2024-01-11T04:46:15;-5.10;99.90
47520;DHT22;33252;48.122;11.538;2024-01-11T04:48:41;-5.20;99.90
47520;DHT22;33252;48.122;11.538;2024-01-11T04:51:06;-5.00;99.90
47520;DHT22;33252;48.122;11.538;2024-01-11T04:53:32;-5.00;99.90
47520;DHT22;33252;48.122;11.538;2024-01-11T04:55:57;-5.00;99.90
47520;DHT22;33252;48.122;11.538;2024-01-11T04:58:23;-5.00;99.90
47520;DHT22;33252;48.122;11.538;2024-01-11T05:00:49;-4.90;99.90
47520;DHT22;33252;48.122;11.538;2024-01-11T05:03:15;-4.90;99.90
47520;DHT22;33252;48.122;11.538;2024-01-11T05:05:40;-4.90;99.90
47520;DHT22;33252;48.122;11.538;2024-01-11T05:08:06;-4.80;99.90
47520;DHT22;33252;48.122;11.538;2024-01-11T05:10:31;-4.90;99.90
47520;DHT22;33252;48.122;11.538;2024-01-11T05:12:57;-4.80;99.90
47520;DHT22;33252;48.122;11.538;2024-01-11T05:15:22;-4.80;99.90
47520;DHT22;33252;48.122;11.538;2024-01-11T05:17:48;-4.90;99.90
47520;DHT22;33252;48.122;11.538;2024-01-11T05:20:13;-4.80;99.90
47520;DHT22;33252;48.122;11.538;2024-01-11T05:22:39;-4.90;99.90
47520;DHT22;33252;48.122;11.538;2024-01-11T05:25:05;-4.80;99.90
47520;DHT22;33252;48.122;11.538;2024-01-11T05:27:31;-4.90;99.90
47520;DHT22;33252;48.122;11.538;2024-01-11T05:29:56;-4.80;99.90
47520;DHT22;33252;48.122;11.538;2024-01-11T05:32:22;-4.90;99.90
47520;DHT22;33252;48.122;11.538;2024-01-11T05:34:47;-4.90;99.90
47520;DHT22;33252;48.122;11.538;2024-01-11T05:37:13;-4.90;99.90
47520;DHT22;33252;48.122;11.538;2024-01-11T05:39:38;-4.80;99.90
47520;DHT22;33252;48.122;11.538;2024-01-11T05:42:04;-4.90;99.90
47520;DHT22;33252;48.122;11.538;2024-01-11T05:44:30;-4.90;99.90
47520;DHT22;33252;48.122;11.538;2024-01-11T05:46:55;-5.00;99.90
47520;DHT22;33252;48.122;11.538;2024-01-11T05:49:21;-4.90;99.90
47520;DHT22;33252;48.122;11.538;2024-01-11T05:51:46;-4.80;99.90
47520;DHT22;33252;48.122;11.538;2024-01-11T05:54:12;-4.80;99.90
47520;DHT22;33252;48.122;11.538;2024-01-11T05:56:37;-4.80;99.90
47520;DHT22;33252;48.122;11.538;2024-01-11T05:59:03;-4.90;99.90
47520;DHT22;33252;48.122;11.538;2024-01-11T06:01:28;-4.90;99.90
47520;DHT22;33252;48.122;11.538;2024-01-11T06:03:54;-4.90;99.90
47520;DHT22;33252;48.122;11.538;2024-01-11T06:06:20;-4.90;99.90
47520;DHT22;33252;48.122;11.538;2024-01-11T06:08:46;-5.00;99.90
47520;DHT22;33252;48.122;11.538;2024-01-11T06:11:11;-5.00;99.90
47520;DHT22;33252;48.122;11.538;2024-01-11T06:13:39;-5.10;99.90
47520;DHT22;33252;48.122;11.538;2024-01-11T06:16:05;-5.20;99.90
47520;DHT22;33252;48.122;11.538;2024-01-11T06:18:30;-5.00;99.90
47520;DHT22;33252;48.122;11.538;2024-01-11T06:20:56;-5.00;99.90
47520;DHT22;33252;48.122;11.538;2024-01-11T06:23:23;-5.10;99.90
47520;DHT22;33252;48.122;11.538;2024-01-11T06:25:49;-5.00;99.90
47520;DHT22;33252;48.122;11.538;2024-01-11T06:28:15;-5.00;99.90
47520;DHT22;33252;48.122;11.538;2024-01-11T06:30:40;-5.00;99.90
47520;DHT22;33252;48.122;11.538;2024-01-11T06:33:06;-5.00;99.90
47520;DHT22;33252;48.122;11.538;2024-01-11T06:35:31;-5.00;99.90
47520;DHT22;33252;48.122;11.538;2024-01-11T06:37:57;-4.90;99.90
47520;DHT22;33252;48.122;11.538;2024-01-11T06:40:23;-4.90;99.90
47520;DHT22;33252;48.122;11.538;2024-01-11T06:42:49;-4.90;99.90
47520;DHT22;33252;48.122;11.538;2024-01-11T06:45:15;-4.90;99.90
47520;DHT22;33252;48.122;11.538;2024-01-11T06:47:40;-4.90;99.90
47520;DHT22;33252;48.122;11.538;2024-01-11T06:50:06;-4.90;99.90
47520;DHT22;33252;48.122;11.538;2024-01-11T06:52:33;-4.90;99.90
47520;DHT22;33252;48.122;11.538;2024-01-11T06:54:59;-4.90;99.90
47520;DHT22;33252;48.122;11.538;2024-01-11T06:57:26;-4.90;99.90
47520;DHT22;33252;48.122;11.538;2024-01-11T06:59:51;-4.90;99.90
47520;DHT22;33252;48.122;11.538;2024-01-11T07:02:17;-4.90;99.90
47520;DHT22;33252;48.122;11.538;2024-01-11T07:04:45;-5.00;99.90
47520;DHT22;33252;48.122;11.538;2024-01-11T07:07:11;-5.00;99.90
47520;DHT22;33252;48.122;11.538;2024-01-11T07:09:36;-4.90;99.90
47520;DHT22;33252;48.122;11.538;2024-01-11T07:12:02;-5.00;99.90
47520;DHT22;33252;48.122;11.538;2024-01-11T07:14:28;-5.10;99.90
47520;DHT22;33252;48.122;11.538;2024-01-11T07:16:55;-5.10;99.90
47520;DHT22;33252;48.122;11.538;2024-01-11T07:19:20;-5.00;99.90
47520;DHT22;33252;48.122;11.538;2024-01-11T07:21:46;-5.00;99.90
47520;DHT22;33252;48.122;11.538;2024-01-11T07:24:11;-5.10;99.90
47520;DHT22;33252;48.122;11.538;2024-01-11T07:26:37;-5.10;99.90
47520;DHT22;33252;48.122;11.538;2024-01-11T07:29:02;-5.10;99.90
47520;DHT22;33252;48.122;11.538;2024-01-11T07:31:28;-5.10;99.90
47520;DHT22;33252;48.122;11.538;2024-01-11T07:33:54;-5.10;99.90
47520;DHT22;33252;48.122;11.538;2024-01-11T07:36:20;-5.10;99.90
47520;DHT22;33252;48.122;11.538;2024-01-11T07:38:45;-5.10;99.90
47520;DHT22;33252;48.122;11.538;2024-01-11T07:41:11;-5.10;99.90
47520;DHT22;33252;48.122;11.538;2024-01-11T07:43:37;-5.10;99.90
47520;DHT22;33252;48.122;11.538;2024-01-11T07:46:02;-5.10;99.90
47520;DHT22;33252;48.122;11.538;2024-01-11T07:48:29;-5.10;99.90
47520;DHT22;33252;48.122;11.538;2024-01-11T07:50:54;-5.10;99.90
47520;DHT22;33252;48.122;11.538;2024-01-11T07:53:20;-5.10;99.90
47520;DHT22;33252;48.122;11.538;2024-01-11T07:55:46;-5.10;99.90
47520;DHT22;33252;48.122;11.538;2024-01-11T07:58:13;-5.20;99.90
47520;DHT22;33252;48.122;11.538;2024-01-11T08:00:40;-5.10;99.90
47520;DHT22;33252;48.122;11.538;2024-01-11T08:03:05;-5.00;99.90
47520;DHT22;33252;48.122;11.538;2024-01-11T08:05:31;-5.00;99.90
47520;DHT22;33252;48.122;11.538;2024-01-11T08:07:56;-4.90;99.90
47520;DHT22;33252;48.122;11.538;2024-01-11T08:10:22;-4.90;99.90
47520;DHT22;33252;48.122;11.538;2024-01-11T08:12:47;-5.00;99.90
47520;DHT22;33252;48.122;11.538;2024-01-11T08:15:13;-4.90;99.90
47520;DHT22;33252;48.122;11.538;2024-01-11T08:17:43;-4.80;99.90
47520;DHT22;33252;48.122;11.538;2024-01-11T08:20:10;-4.80;99.90
47520;DHT22;33252;48.122;11.538;2024-01-11T08:22:39;-4.80;99.90
47520;DHT22;33252;48.122;11.538;2024-01-11T08:25:05;-4.90;99.90
47520;DHT22;33252;48.122;11.538;2024-01-11T08:27:31;-4.90;99.90
47520;DHT22;33252;48.122;11.538;2024-01-11T08:29:57;-4.90;99.90
47520;DHT22;33252;48.122;11.538;2024-01-11T08:32:23;-4.80;99.90
47520;DHT22;33252;48.122;11.538;2024-01-11T08:34:48;-4.80;99.90
47520;DHT22;33252;48.122;11.538;2024-01-11T08:37:14;-4.80;99.90
47520;DHT22;33252;48.122;11.538;2024-01-11T08:39:40;-4.80;99.90
47520;DHT22;33252;48.122;11.538;2024-01-11T08:42:06;-4.70;99.90
47520;DHT22;33252;48.122;11.538;2024-01-11T08:44:31;-4.60;99.90
47520;DHT22;33252;48.122;11.538;2024-01-11T08:46:57;-4.60;99.90
47520;DHT22;33252;48.122;11.538;2024-01-11T08:49:24;-4.50;99.90
47520;DHT22;33252;48.122;11.538;2024-01-11T08:51:49;-4.60;99.90
47520;DHT22;33252;48.122;11.538;2024-01-11T08:54:15;-4.50;99.90
47520;DHT22;33252;48.122;11.538;2024-01-11T08:56:42;-4.30;99.90
47520;DHT22;33252;48.122;11.538;2024-01-11T08:59:07;-4.40;99.90
47520;DHT22;33252;48.122;11.538;2024-01-11T09:01:34;-4.60;99.90
47520;DHT22;33252;48.122;11.538;2024-01-11T09:04:01;-4.60;99.90
47520;DHT22;33252;48.122;11.538;2024-01-11T09:06:27;-4.50;99.90
47520;DHT22;33252;48.122;11.538;2024-01-11T09:08:53;-4.40;99.90
47520;DHT22;33252;48.122;11.538;2024-01-11T09:11:18;-4.40;99.90
47520;DHT22;33252;48.122;11.538;2024-01-11T09:13:44;-4.50;99.90
47520;DHT22;33252;48.122;11.538;2024-01-11T09:16:09;-4.50;99.90
47520;DHT22;33252;48.122;11.538;2024-01-11T09:18:39;-4.40;99.90
47520;DHT22;33252;48.122;11.538;2024-01-11T09:21:04;-4.40;99.90
47520;DHT22;33252;48.122;11.538;2024-01-11T09:23:30;-4.40;99.90
47520;DHT22;33252;48.122;11.538;2024-01-11T09:25:55;-4.40;99.90
47520;DHT22;33252;48.122;11.538;2024-01-11T09:28:21;-4.20;99.90
47520;DHT22;33252;48.122;11.538;2024-01-11T09:30:46;-4.30;99.90
47520;DHT22;33252;48.122;11.538;2024-01-11T09:33:12;-4.20;99.90
47520;DHT22;33252;48.122;11.538;2024-01-11T09:35:38;-4.20;99.90
47520;DHT22;33252;48.122;11.538;2024-01-11T09:38:03;-4.40;99.90
47520;DHT22;33252;48.122;11.538;2024-01-11T09:40:29;-4.50;99.90
47520;DHT22;33252;48.122;11.538;2024-01-11T09:42:54;-4.50;99.90
47520;DHT22;33252;48.122;11.538;2024-01-11T09:45:21;-4.50;99.90
47520;DHT22;33252;48.122;11.538;2024-01-11T09:47:46;-4.70;99.90
47520;DHT22;33252;48.122;11.538;2024-01-11T09:50:14;-4.70;99.90
47520;DHT22;33252;48.122;11.538;2024-01-11T09:52:47;-4.70;99.90
47520;DHT22;33252;48.122;11.538;2024-01-11T09:55:19;-4.70;99.90
47520;DHT22;33252;48.122;11.538;2024-01-11T09:57:46;-5.00;99.90
47520;DHT22;33252;48.122;11.538;2024-01-11T10:00:16;-4.90;99.90
47520;DHT22;33252;48.122;11.538;2024-01-11T10:02:41;-4.90;99.90
47520;DHT22;33252;48.122;11.538;2024-01-11T10:05:07;-4.90;99.90
47520;DHT22;33252;48.122;11.538;2024-01-11T10:07:34;-4.80;99.90
47520;DHT22;33252;48.122;11.538;2024-01-11T10:09:59;-5.00;99.90
47520;DHT22;33252;48.122;11.538;2024-01-11T10:12:27;-5.10;99.90
47520;DHT22;33252;48.122;11.538;2024-01-11T10:14:53;-4.90;99.90
47520;DHT22;33252;48.122;11.538;2024-01-11T10:17:18;-4.80;99.90
47520;DHT22;33252;48.122;11.538;2024-01-11T10:19:44;-4.70;99.90
47520;DHT22;33252;48.122;11.538;2024-01-11T10:22:10;-4.60;99.90
47520;DHT22;33252;48.122;11.538;2024-01-11T10:24:41;-4.60;99.90
47520;DHT22;33252;48.122;11.538;2024-01-11T10:27:09;-4.60;99.90
47520;DHT22;33252;48.122;11.538;2024-01-11T10:29:35;-4.60;99.90
47520;DHT22;33252;48.122;11.538;2024-01-11T10:32:03;-4.40;99.90
47520;DHT22;33252;48.122;11.538;2024-01-11T10:34:29;-4.20;99.90
47520;DHT22;33252;48.122;11.538;2024-01-11T10:36:54;-4.20;99.90
47520;DHT22;33252;48.122;11.538;2024-01-11T10:39:25;-4.20;99.90
47520;DHT22;33252;48.122;11.538;2024-01-11T10:41:54;-4.30;99.90
47520;DHT22;33252;48.122;11.538;2024-01-11T10:44:22;-4.10;99.90
47520;DHT22;33252;48.122;11.538;2024-01-11T10:46:49;-4.00;99.90
47520;DHT22;33252;48.122;11.538;2024-01-11T10:49:17;-3.90;99.90
47520;DHT22;33252;48.122;11.538;2024-01-11T10:51:47;-3.90;99.90
47520;DHT22;33252;48.122;11.538;2024-01-11T10:54:15;-4.20;99.90
47520;DHT22;33252;48.122;11.538;2024-01-11T10:56:42;-4.30;99.90
47520;DHT22;33252;48.122;11.538;2024-01-11T10:59:11;-4.40;99.90
47520;DHT22;33252;48.122;11.538;2024-01-11T11:01:38;-4.30;99.90
47520;DHT22;33252;48.122;11.538;2024-01-11T11:04:06;-4.20;99.90
47520;DHT22;33252;48.122;11.538;2024-01-11T11:06:34;-4.10;99.90
47520;DHT22;33252;48.122;11.538;2024-01-11T11:09:00;-4.10;99.90
47520;DHT22;33252;48.122;11.538;2024-01-11T11:11:26;-4.00;99.90
47520;DHT22;33252;48.122;11.538;2024-01-11T11:13:54;-4.10;99.90
47520;DHT22;33252;48.122;11.538;2024-01-11T11:16:20;-4.20;99.90
47520;DHT22;33252;48.122;11.538;2024-01-11T11:18:46;-4.30;99.90
47520;DHT22;33252;48.122;11.538;2024-01-11T11:21:12;-4.20;99.90
47520;DHT22;33252;48.122;11.538;2024-01-11T11:23:37;-4.10;99.90
47520;DHT22;33252;48.122;11.538;2024-01-11T11:26:06;-4.20;99.90
47520;DHT22;33252;48.122;11.538;2024-01-11T11:28:32;-4.10;99.90
47520;DHT22;33252;48.122;11.538;2024-01-11T11:31:00;-4.10;99.90
47520;DHT22;33252;48.122;11.538;2024-01-11T11:33:29;-4.20;99.90
47520;DHT22;33252;48.122;11.538;2024-01-11T11:35:58;-4.20;99.90
47520;DHT22;33252;48.122;11.538;2024-01-11T11:38:29;-4.20;99.90
47520;DHT22;33252;48.122;11.538;2024-01-11T11:40:57;-4.20;99.90
47520;DHT22;33252;48.122;11.538;2024-01-11T11:43:23;-4.20;99.90
47520;DHT22;33252;48.122;11.538;2024-01-11T11:45:51;-4.30;99.90
47520;DHT22;33252;48.122;11.538;2024-01-11T11:53:34;-4.20;99.90
47520;DHT22;33252;48.122;11.538;2024-01-11T11:56:00;-4.20;99.90
47520;DHT22;33252;48.122;11.538;2024-01-11T11:58:30;-4.20;99.90
47520;DHT22;33252;48.122;11.538;2024-01-11T12:00:57;-4.10;99.90
47520;DHT22;33252;48.122;11.538;2024-01-11T12:05:55;-4.30;99.90
47520;DHT22;33252;48.122;11.538;2024-01-11T12:08:22;-4.20;99.90
47520;DHT22;33252;48.122;11.538;2024-01-11T12:10:47;-4.00;99.90
47520;DHT22;33252;48.122;11.538;2024-01-11T12:13:13;-4.10;99.90
47520;DHT22;33252;48.122;11.538;2024-01-11T12:15:40;-4.00;99.90
47520;DHT22;33252;48.122;11.538;2024-01-11T12:18:06;-3.90;99.90
47520;DHT22;33252;48.122;11.538;2024-01-11T12:20:33;-4.10;99.90
47520;DHT22;33252;48.122;11.538;2024-01-11T12:22:59;-4.00;99.90
47520;DHT22;33252;48.122;11.538;2024-01-11T12:25:25;-4.10;99.90
47520;DHT22;33252;48.122;11.538;2024-01-11T12:27:51;-3.90;99.90
47520;DHT22;33252;48.122;11.538;2024-01-11T12:30:17;-3.80;99.90
47520;DHT22;33252;48.122;11.538;2024-01-11T12:32:43;-3.90;99.90
47520;DHT22;33252;48.122;11.538;2024-01-11T12:35:09;-3.80;99.90
47520;DHT22;33252;48.122;11.538;2024-01-11T12:37:35;-3.80;99.90
47520;DHT22;33252;48.122;11.538;2024-01-11T12:40:00;-3.80;99.90
47520;DHT22;33252;48.122;11.538;2024-01-11T12:42:27;-3.70;99.90
47520;DHT22;33252;48.122;11.538;2024-01-11T12:44:53;-3.70;99.90
47520;DHT22;33252;48.122;11.538;2024-01-11T12:47:19;-3.70;99.90
47520;DHT22;33252;48.122;11.538;2024-01-11T12:49:45;-3.80;99.90
47520;DHT22;33252;48.122;11.538;2024-01-11T12:52:17;-3.70;99.90
47520;DHT22;33252;48.122;11.538;2024-01-11T12:54:43;-3.70;99.90
47520;DHT22;33252;48.122;11.538;2024-01-11T12:57:12;-3.60;99.90
47520;DHT22;33252;48.122;11.538;2024-01-11T12:59:37;-3.60;99.90
47520;DHT22;33252;48.122;11.538;2024-01-11T13:02:05;-3.50;99.90
47520;DHT22;33252;48.122;11.538;2024-01-11T13:04:31;-3.40;99.90
47520;DHT22;33252;48.122;11.538;2024-01-11T13:06:56;-3.40;99.90
47520;DHT22;33252;48.122;11.538;2024-01-11T13:09:22;-3.30;99.90
47520;DHT22;33252;48.122;11.538;2024-01-11T13:11:48;-3.30;99.90
47520;DHT22;33252;48.122;11.538;2024-01-11T13:14:14;-3.30;99.90
47520;DHT22;33252;48.122;11.538;2024-01-11T13:16:44;-3.30;99.90
47520;DHT22;33252;48.122;11.538;2024-01-11T13:19:11;-3.30;99.90
47520;DHT22;33252;48.122;11.538;2024-01-11T13:21:37;-3.40;99.90
47520;DHT22;33252;48.122;11.538;2024-01-11T13:24:03;-3.30;99.90
47520;DHT22;33252;48.122;11.538;2024-01-11T13:26:29;-3.30;99.90
47520;DHT22;33252;48.122;11.538;2024-01-11T13:28:54;-3.20;99.90
47520;DHT22;33252;48.122;11.538;2024-01-11T13:31:20;-3.20;99.90
47520;DHT22;33252;48.122;11.538;2024-01-11T13:33:46;-3.30;99.90
47520;DHT22;33252;48.122;11.538;2024-01-11T13:36:12;-3.20;99.90
47520;DHT22;33252;48.122;11.538;2024-01-11T13:38:37;-3.10;99.90
47520;DHT22;33252;48.122;11.538;2024-01-11T13:41:03;-3.20;99.90
47520;DHT22;33252;48.122;11.538;2024-01-11T13:43:30;-3.10;99.90
47520;DHT22;33252;48.122;11.538;2024-01-11T13:45:56;-3.10;99.90
47520;DHT22;33252;48.122;11.538;2024-01-11T13:48:21;-3.10;99.90
47520;DHT22;33252;48.122;11.538;2024-01-11T13:50:47;-3.10;99.90
47520;DHT22;33252;48.122;11.538;2024-01-11T13:53:13;-3.10;99.90
47520;DHT22;33252;48.122;11.538;2024-01-11T13:55:38;-3.20;99.90
47520;DHT22;33252;48.122;11.538;2024-01-11T13:58:04;-3.20;99.90
47520;DHT22;33252;48.122;11.538;2024-01-11T14:00:30;-3.30;99.90
47520;DHT22;33252;48.122;11.538;2024-01-11T14:02:55;-3.10;99.90
47520;DHT22;33252;48.122;11.538;2024-01-11T14:05:21;-3.10;99.90
47520;DHT22;33252;48.122;11.538;2024-01-11T14:07:47;-3.10;99.90
47520;DHT22;33252;48.122;11.538;2024-01-11T14:10:13;-3.00;99.90
47520;DHT22;33252;48.122;11.538;2024-01-11T14:12:39;-3.30;99.90
47520;DHT22;33252;48.122;11.538;2024-01-11T14:15:07;-3.40;99.90
47520;DHT22;33252;48.122;11.538;2024-01-11T14:17:33;-3.40;99.90
47520;DHT22;33252;48.122;11.538;2024-01-11T14:19:59;-3.40;99.90
47520;DHT22;33252;48.122;11.538;2024-01-11T14:22:26;-3.40;99.90
47520;DHT22;33252;48.122;11.538;2024-01-11T14:24:51;-3.50;99.90
47520;DHT22;33252;48.122;11.538;2024-01-11T14:27:19;-3.50;99.90
47520;DHT22;33252;48.122;11.538;2024-01-11T14:29:45;-3.40;99.90
47520;DHT22;33252;48.122;11.538;2024-01-11T14:32:11;-3.40;99.90
47520;DHT22;33252;48.122;11.538;2024-01-11T14:34:37;-3.40;99.90
47520;DHT22;33252;48.122;11.538;2024-01-11T14:37:02;-3.50;99.90
47520;DHT22;33252;48.122;11.538;2024-01-11T14:39:28;-3.50;99.90
47520;DHT22;33252;48.122;11.538;2024-01-11T14:41:53;-3.60;99.90
47520;DHT22;33252;48.122;11.538;2024-01-11T14:44:19;-3.70;99.90
47520;DHT22;33252;48.122;11.538;2024-01-11T14:46:44;-3.60;99.90
47520;DHT22;33252;48.122;11.538;2024-01-11T14:49:10;-3.60;99.90
47520;DHT22;33252;48.122;11.538;2024-01-11T14:51:35;-3.50;99.90
47520;DHT22;33252;48.122;11.538;2024-01-11T14:54:03;-3.50;99.90
47520;DHT22;33252;48.122;11.538;2024-01-11T14:56:32;-3.60;99.90
47520;DHT22;33252;48.122;11.538;2024-01-11T14:58:58;-3.60;99.90
47520;DHT22;33252;48.122;11.538;2024-01-11T15:01:23;-3.50;99.90
47520;DHT22;33252;48.122;11.538;2024-01-11T15:03:49;-3.50;99.90
47520;DHT22;33252;48.122;11.538;2024-01-11T15:06:15;-3.60;99.90
47520;DHT22;33252;48.122;11.538;2024-01-11T15:08:40;-3.60;99.90
47520;DHT22;33252;48.122;11.538;2024-01-11T15:11:06;-3.70;99.90
47520;DHT22;33252;48.122;11.538;2024-01-11T15:13:33;-3.80;99.90
47520;DHT22;33252;48.122;11.538;2024-01-11T15:15:59;-3.70;99.90